Latest Coastal Weather Observations for Cooktown

IDQ60701

Issued at 5:42 pm EST Monday 25 May 2015 (issued every 10 minutes, with the page automatically refreshed every 10 minutes)

About coastal observations | Map of coastal stations | Coastal observations for QLD | Marine services | Other Formats
Station Details ID: 031209 Name: COOKTOWN AIRPORT Lat: -15.45 Lon: 145.19 Height: 4.8 m
Data from the previous 72 hours. | See also: Recent months at Cooktown
Date/Time
EST
Temp

°C
Wind Pressure Rain
since 9am
mm
Weather Cloud Vis
km
Sea
Height
m
Swell
Dir
 
Speed
knots
Gust
knots
hPa Trend Height
m
Period
s
Dir
25/05:30pm 24.7 SE 11 17 1017.7 - 0.0 - Partly cloudy 10 - - - -
25/05:00pm 25.2 SE 12 19 1017.5 - 0.0 - Partly cloudy 10 - - - -
25/04:50pm 25.1 SE 12 21 1017.6 - 0.0 - Partly cloudy 10 - - - -
25/04:31pm 24.8 SE 12 19 1017.5 - 0.0 - Partly cloudy 10 - - - -
25/04:30pm 24.8 SE 12 23 1017.5 - 0.0 - Partly cloudy 10 - - - -
25/04:00pm 25.3 SE 14 23 1017.3 - 0.0 - Partly cloudy 10 - - - -
25/03:48pm 25.6 SE 11 17 1017.2 - 0.0 - Partly cloudy 10 - - - -
25/03:31pm 25.9 ESE 15 25 1017.3 - 0.0 - Partly cloudy 10 - - - -
25/03:30pm 25.7 ESE 16 25 1017.3 - 0.0 - Partly cloudy 10 - - - -
25/03:12pm 26.4 SE 15 25 1017.3 - 0.0 - Partly cloudy 10 - - - -
25/03:00pm 26.3 SE 16 24 1017.3 F 0.0 Haze Mostly clear 30 - - - -
25/02:32pm 26.0 ESE 18 24 1017.5 - 0.0 - Partly cloudy 10 - - - -
25/02:30pm 26.2 ESE 18 24 1017.5 - 0.0 - Partly cloudy 10 - - - -
25/02:07pm 26.1 ESE 15 25 1017.6 - 0.0 - Partly cloudy 10 - - - -
25/02:00pm 26.6 ESE 13 18 1017.6 - 0.0 - Partly cloudy 10 - - - -
25/01:57pm 26.3 ESE 13 19 1017.6 - 0.0 - Partly cloudy 10 - - - -
25/01:42pm 26.3 SE 16 26 1017.9 - 0.0 - Partly cloudy 10 - - - -
25/01:30pm 26.4 ESE 16 24 1018.1 - 0.0 - Partly cloudy 10 - - - -
25/01:01pm 26.1 SE 15 25 1018.6 - 0.0 - Partly cloudy 10 - - - -
25/01:00pm 26.2 SE 14 25 1018.6 - 0.0 - Partly cloudy 10 - - - -
25/12:32pm 26.1 SE 15 25 1018.9 - 0.0 - Partly cloudy 10 - - - -
25/12:30pm 26.1 SE 16 25 1018.9 - 0.0 - Partly cloudy 10 - - - -
25/12:00pm 26.5 SE 16 27 1019.3 - 0.0 - Cloudy 10 - - - -
25/11:31am 26.5 SE 16 29 1019.6 - 0.0 - Partly cloudy 10 - - - -
25/11:30am 26.3 SE 16 25 1019.6 - 0.0 - Partly cloudy 10 - - - -
25/11:00am 26.6 SE 15 23 1019.8 - 0.0 - Partly cloudy 10 - - - -
25/10:30am 26.6 SE 13 24 1020.0 - 0.0 - Cloudy 10 - - - -
25/10:20am 26.5 SE 15 25 1019.9 - 0.0 - Cloudy 10 - - - -
25/10:00am 26.0 SE 13 22 1019.9 - 0.0 - Partly cloudy 10 - - - -
25/09:38am 25.9 SE 15 25 1019.9 - 0.0 - Partly cloudy 10 - - - -
25/09:35am 25.9 SE 14 21 1019.9 - 0.0 - Cloudy 10 - - - -
25/09:30am 25.7 SE 14 24 1019.9 - 0.0 - Partly cloudy 10 - - - -
25/09:00am 25.9 SE 13 22 1019.7 R 0.0 Distant precip. Mostly cloudy 10 - - - -
25/08:30am 25.5 SE 12 23 1019.4 - 0.0 - Cloudy 10 - - - -
25/08:00am 25.2 SE 12 20 1019.2 - 0.0 - Partly cloudy 10 - - - -
25/07:31am 25.0 SE 13 20 1018.7 - 0.0 - Partly cloudy 10 - - - -
25/07:30am 24.9 SE 13 20 1018.7 - 0.0 - Partly cloudy 10 - - - -
25/07:00am 24.8 ESE 13 21 1018.5 - 0.0 - Partly cloudy 10 - - - -
25/06:30am 24.9 ESE 13 18 1018.2 - 0.0 - Partly cloudy 10 - - - -
25/06:00am 25.0 SE 11 18 1017.8 - 0.0 - Cloudy 10 - - - -
25/05:30am 24.9 ESE 11 19 1017.6 - 0.0 - Partly cloudy 10 - - - -
25/05:00am 24.7 SE 13 19 1017.5 - 0.0 - Partly cloudy 10 - - - -
25/04:30am 24.5 SE 12 21 1017.5 - 0.0 - Partly cloudy 10 - - - -
25/04:09am 25.1 ESE 15 20 1017.4 - 0.0 - Partly cloudy 10 - - - -
25/04:00am 25.0 SE 12 21 1017.4 - 0.0 - Partly cloudy 10 - - - -
25/03:30am 24.8 SE 10 16 1017.2 - 0.0 - Partly cloudy 10 - - - -
25/03:22am 24.7 SE 12 22 1017.3 - 0.0 - Partly cloudy 10 - - - -
25/03:00am 24.5 SE 12 18 1017.5 - 0.0 - Cloudy 10 - - - -
25/02:30am 24.7 SE 13 18 1017.7 - 0.0 - Partly cloudy 10 - - - -
25/02:00am 24.9 SE 11 17 1017.8 - 0.0 - Partly cloudy 10 - - - -
25/01:30am 25.0 ESE 11 17 1018.0 - 0.0 - Partly cloudy 10 - - - -
25/01:03am 25.0 ESE 11 17 1018.1 - 0.0 - Partly cloudy 10 - - - -
25/01:00am 24.9 SE 10 16 1018.1 - 0.0 - Partly cloudy 10 - - - -
25/12:44am 24.4 SE 8 13 1018.3 - 0.0 - Partly cloudy 10 - - - -
25/12:30am 24.5 SE 9 13 1018.5 - 0.0 - Partly cloudy 10 - - - -
25/12:00am 24.8 ESE 9 15 1018.7 - 0.0 - Cloudy 10 - - - -
 
Date/Time
EST
Temp

°C
Wind Pressure Rain
since 9am
mm
Weather Cloud Vis
km
Sea
Height
m
Swell
Dir
 
Speed
knots
Gust
knots
hPa Trend Height
m
Period
s
Dir
24/11:43pm 24.3 SE 9 14 1018.7 - 0.0 - Partly cloudy 10 - - - -
24/11:30pm 24.1 SE 8 11 1018.7 - 0.0 - Partly cloudy 10 - - - -
24/11:09pm 24.2 SE 9 13 1018.8 - 0.0 - Partly cloudy 10 - - - -
24/11:04pm 24.1 SE 9 16 1018.9 - 0.0 - Partly cloudy 10 - - - -
24/11:00pm 24.2 SE 9 16 1018.9 - 0.0 - Partly cloudy 10 - - - -
24/10:30pm 24.2 SE 11 18 1018.8 - 0.0 - Partly cloudy 10 - - - -
24/10:13pm 24.1 SE 9 15 1018.9 - 0.0 - Partly cloudy 10 - - - -
24/10:00pm 24.3 SE 10 17 1018.9 - 0.0 - Partly cloudy 10 - - - -
24/09:30pm 24.3 SE 11 21 1018.8 - 0.0 - Partly cloudy 10 - - - -
24/09:25pm 24.3 SE 11 18 1018.8 - 0.0 - Partly cloudy 10 - - - -
24/09:15pm 24.5 SE 11 19 1018.8 - 0.0 - Partly cloudy 10 - - - -
24/09:00pm 24.5 SE 12 18 1018.7 - 0.0 - Cloudy 10 - - - -
24/08:30pm 24.4 SE 12 20 1018.5 - 0.0 - Partly cloudy 10 - - - -
24/08:00pm 24.3 SE 9 16 1018.3 - 0.0 - Partly cloudy 10 - - - -
24/07:30pm 24.0 SE 10 17 1018.0 - 0.0 - Partly cloudy 10 - - - -
24/07:00pm 24.0 SE 11 18 1017.7 - 0.0 - Partly cloudy 10 - - - -
24/06:30pm 24.3 SE 11 19 1017.6 - 0.0 - Partly cloudy 10 - - - -
24/06:00pm 24.4 SE 12 22 1017.3 - 0.0 - Cloudy 10 - - - -
24/05:30pm 24.4 SE 12 21 1017.0 - 0.0 - Cloudy 10 - - - -
24/05:00pm 24.5 SE 12 21 1016.8 - 0.0 - Partly cloudy 10 - - - -
24/04:30pm 24.7 SE 14 23 1016.5 - 0.0 - Partly cloudy 10 - - - -
24/04:00pm 25.3 SE 13 21 1016.3 - 0.0 - Partly cloudy 10 - - - -
24/03:30pm 25.6 SE 13 21 1016.3 - 0.0 - Partly cloudy 10 - - - -
24/03:00pm 25.5 SE 13 20 1016.1 F 0.0 Fine Mostly clear 40 - - - -
24/02:30pm 25.3 SE 13 23 1016.1 - 0.0 - Partly cloudy 10 - - - -
24/02:00pm 25.7 SE 12 18 1016.2 - 0.0 - Partly cloudy 10 - - - -
24/01:30pm 26.0 SSE 15 23 1016.4 - 0.0 - Partly cloudy 10 - - - -
24/01:00pm 26.2 ESE 15 24 1016.9 - 0.0 - Partly cloudy 10 - - - -
24/12:30pm 25.9 ESE 15 22 1017.3 - 0.0 - Partly cloudy 10 - - - -
24/12:04pm 26.1 SE 16 26 1017.7 - 0.0 - Partly cloudy 10 - - - -
24/12:00pm 25.5 SE 17 26 1017.9 - 0.0 - Partly cloudy 10 - - - -
24/11:56am 25.7 SE 16 26 1017.9 - 0.0 - Partly cloudy 10 - - - -
24/11:30am 25.5 SE 13 22 1018.3 - 0.0 - Partly cloudy 10 - - - -
24/11:09am 25.2 SE 15 25 1018.4 - 0.0 - Partly cloudy 10 - - - -
24/11:00am 24.9 SE 15 24 1018.6 - 0.0 - Partly cloudy 10 - - - -
24/10:30am 25.6 SE 12 20 1018.8 - 0.0 - Partly cloudy 10 - - - -
24/10:00am 24.0 SE 12 20 1018.8 - 0.0 - Cloudy 10 - - - -
24/09:30am 23.7 SE 11 17 1018.8 - 0.0 - Cloudy 10 - - - -
24/09:00am 24.3 SE 10 20 1018.6 - 0.0 - - 10 - - - -
24/08:30am 23.6 SE 11 16 1018.4 - 0.0 - Partly cloudy 10 - - - -
24/08:00am 22.4 SE 10 16 1018.1 - 0.0 - Partly cloudy 10 - - - -
24/07:30am 22.0 SE 9 16 1017.9 - 0.0 - Partly cloudy 10 - - - -
24/07:00am 21.9 SE 8 17 1017.6 - 0.0 - Partly cloudy 10 - - - -
24/06:30am 21.5 SE 8 12 1017.2 - 0.0 - Partly cloudy 10 - - - -
24/06:00am 21.7 SSE 8 14 1017.0 - 0.0 - Mostly clear 10 - - - -
24/05:30am 21.6 SE 8 13 1016.9 - 0.0 - Partly cloudy 10 - - - -
24/05:00am 21.5 SSE 8 12 1016.7 - 0.0 - - 10 - - - -
24/04:30am 21.3 SE 7 10 1016.6 - 0.0 - - 10 - - - -
24/04:00am 21.8 SE 8 13 1016.8 - 0.0 - Partly cloudy 10 - - - -
24/03:30am 21.9 SE 9 15 1016.5 - 0.0 - Partly cloudy 10 - - - -
24/03:00am 22.0 SE 8 13 1016.6 - 0.0 - Partly cloudy 10 - - - -
24/02:30am 22.7 SE 9 17 1016.7 - 0.0 - Partly cloudy 10 - - - -
24/02:00am 22.7 ESE 13 24 1016.8 - 0.0 - Partly cloudy 10 - - - -
24/01:30am 22.6 SE 11 19 1016.9 - 0.0 - Partly cloudy 10 - - - -
24/01:00am 22.5 SE 10 17 1017.0 - 0.0 - Partly cloudy 10 - - - -
24/12:30am 22.9 SE 12 19 1017.1 - 0.0 - Partly cloudy 10 - - - -
24/12:00am 22.8 SE 13 19 1017.2 - 0.0 - - 10 - - - -
 
Date/Time
EST
Temp

°C
Wind Pressure Rain
since 9am
mm
Weather Cloud Vis
km
Sea
Height
m
Swell
Dir
 
Speed
knots
Gust
knots
hPa Trend Height
m
Period
s
Dir
23/11:30pm 22.9 SE 11 17 1017.3 - 0.0 - - 10 - - - -
23/11:00pm 23.0 SE 11 21 1017.4 - 0.0 - - 10 - - - -
23/10:30pm 23.3 SE 14 22 1017.6 - 0.0 - - 10 - - - -
23/10:00pm 23.3 ESE 13 20 1017.8 - 0.0 - Partly cloudy 10 - - - -
23/09:30pm 23.2 ESE 12 19 1017.9 - 0.0 - Partly cloudy 10 - - - -
23/09:00pm 23.4 ESE 15 23 1017.8 - 0.0 - - 10 - - - -
23/08:39pm 23.4 SE 15 26 1017.8 - 0.0 - Partly cloudy 10 - - - -
23/08:30pm 23.1 SE 13 21 1017.8 - 0.0 - Partly cloudy 10 - - - -
23/08:00pm 23.4 SE 14 23 1017.5 - 0.0 - Partly cloudy 10 - - - -
23/07:30pm 23.4 SE 13 22 1017.2 - 0.0 - Partly cloudy 10 - - - -
23/07:00pm 23.3 SE 13 19 1017.0 - 0.0 - Partly cloudy 10 - - - -
23/06:30pm 23.2 SE 12 19 1016.6 - 0.0 - Partly cloudy 10 - - - -
23/06:00pm 23.4 SE 12 20 1016.3 - 0.0 - Mostly clear 10 - - - -
23/05:30pm 23.9 SE 13 23 1016.1 - 0.0 - - 10 - - - -
23/05:00pm 24.2 SE 14 19 1015.9 - 0.0 - Partly cloudy 10 - - - -
23/04:30pm 24.6 SE 14 21 1015.6 - 0.0 - Partly cloudy 10 - - - -
23/04:01pm 25.0 SE 15 27 1015.4 - 0.0 - Partly cloudy 10 - - - -
23/04:00pm 25.0 SE 14 23 1015.4 - 0.0 - Partly cloudy 10 - - - -
23/03:30pm 26.0 SE 12 21 1015.1 - 0.0 - - 10 - - - -
23/03:00pm 25.5 SSE 16 26 1015.0 F 0.0 Fine Mostly clear 40 - - - -
23/02:55pm 25.7 SE 16 26 1015.0 - 0.0 - - 10 - - - -
23/02:30pm 25.8 SSE 16 24 1015.1 - 0.0 - - 10 - - - -
23/02:16pm 25.8 SE 15 25 1015.2 - 0.0 - - 10 - - - -
23/02:00pm 25.8 SE 15 22 1015.3 - 0.0 - - 10 - - - -
23/01:30pm 26.1 SE 16 24 1015.6 - 0.0 - - 10 - - - -
23/01:00pm 26.0 SE 14 23 1016.0 - 0.0 - - 10 - - - -
23/12:33pm 26.0 SE 15 25 1016.4 - 0.0 - Partly cloudy 10 - - - -
23/12:30pm 26.0 SE 14 25 1016.4 - 0.0 - Partly cloudy 10 - - - -
23/12:00pm 26.6 SE 13 21 1016.6 - 0.0 - Partly cloudy 10 - - - -
23/11:30am 26.0 SE 15 26 1016.8 - 0.0 - - 10 - - - -
23/11:04am 26.1 SE 16 26 1017.0 - 0.0 - - 10 - - - -
23/11:00am 25.9 SE 17 25 1017.0 - 0.0 - - 10 - - - -
23/10:35am 25.9 SE 15 25 1017.2 - 0.0 - - 10 - - - -
23/10:30am 26.2 SE 13 21 1017.2 - 0.0 - - 10 - - - -
23/10:00am 26.1 SE 12 18 1017.4 - 0.0 - - 10 - - - -
23/09:30am 25.7 SE 14 22 1017.6 - 0.0 - - 10 - - - -
23/09:00am 25.6 SE 13 22 1017.5 - 0.0 Fine Mostly clear 40 - - - -
23/08:30am 25.3 SE 10 15 1017.2 - 0.0 - - 10 - - - -
23/08:00am 24.8 SE 9 17 1016.8 - 0.0 - - 10 - - - -
23/07:30am 24.4 SE 8 12 1016.7 - 0.0 - - 10 - - - -
23/07:00am 24.0 SE 9 16 1016.6 - 0.0 - - 10 - - - -
23/06:30am 23.8 SE 8 13 1016.1 - 0.0 - Partly cloudy 10 - - - -
23/06:00am 24.2 SE 8 13 1015.8 - 0.0 - Mostly cloudy 10 - - - -
23/05:30am 24.2 SE 6 11 1015.4 - 0.0 - Partly cloudy 10 - - - -
23/05:00am 24.1 SE 7 11 1015.2 - 0.0 - Partly cloudy 10 - - - -
23/04:30am 23.9 ESE 6 10 1015.0 - 0.0 - Partly cloudy 10 - - - -
23/04:00am 24.1 SE 7 9 1015.1 - 0.0 - Partly cloudy 10 - - - -
23/03:30am 23.8 SE 6 8 1015.1 - 0.0 - Partly cloudy 10 - - - -
23/03:00am 23.7 SE 6 9 1014.9 - 0.0 - Partly cloudy 10 - - - -
23/02:30am 24.0 SE 7 10 1015.0 - 0.0 - - 10 - - - -
23/02:00am 23.9 SE 8 13 1015.3 - 0.0 - - 10 - - - -
23/01:30am 24.0 SE 7 10 1015.5 - 0.0 - - 10 - - - -
23/01:00am 24.0 SE 7 11 1015.8 - 0.0 - Partly cloudy 10 - - - -
23/12:30am 24.3 SE 8 11 1016.1 - 0.0 - Partly cloudy 10 - - - -
23/12:00am 24.4 ESE 7 13 1016.3 - 0.0 - Cloudy 10 - - - -
 
Date/Time
EST
Temp

°C
Wind Pressure Rain
since 9am
mm
Weather Cloud Vis
km
Sea
Height
m
Swell
Dir
 
Speed
knots
Gust
knots
hPa Trend Height
m
Period
s
Dir
22/11:30pm 24.3 ESE 8 11 1016.4 - 0.0 - - 10 - - - -
22/11:00pm 24.2 SE 8 15 1016.5 - 0.0 - Partly cloudy 10 - - - -
22/10:30pm 24.0 ESE 8 13 1016.6 - 0.0 - - 10 - - - -
22/10:00pm 24.0 ESE 8 12 1016.6 - 0.0 - - 10 - - - -
22/09:30pm 24.3 ESE 8 13 1016.4 - 0.0 - - 10 - - - -
22/09:00pm 23.8 ESE 6 9 1016.4 - 0.0 - - 10 - - - -
22/08:30pm 24.2 SE 7 13 1016.2 - 0.0 - Partly cloudy 10 - - - -
22/08:00pm 24.2 SE 7 11 1016.0 - 0.0 - - 10 - - - -
22/07:30pm 24.1 SE 7 11 1015.8 - 0.0 - - 10 - - - -
22/07:00pm 24.2 SE 6 10 1015.6 - 0.0 - Partly cloudy 10 - - - -
22/06:30pm 24.2 ESE 7 11 1015.3 - 0.0 - Partly cloudy 10 - - - -
22/06:00pm 24.7 SE 9 13 1015.1 - 0.0 - Mostly clear 10 - - - -

Other Formats:

Comma delimited format used in spreadsheet applications
http://www.bom.gov.au/fwo/IDQ60701/IDQ60701.95283.axf

JavaScript Object Notation format (JSON) in row-major order
http://www.bom.gov.au/fwo/IDQ60701/IDQ60701.95283.json